Time;durP1;ratioP1;P1;durP2;ratioP2;P2;SDS_P1;SDS_P2;PMS_P1;PMS_P2;Temp;Humidity;BMP_temperature;BMP_pressure;BME280_temperature;BME280_humidity;BME280_pressure;Samples;Min_cycle;Max_cycle;Signal;HPM_P1;HPM_P2
2022/12/11 00:02:08;;;;;;;37.85;23.73;;;-0.60;99.90;;;;;;4902123;28;90277;-32
2022/12/11 00:04:34;;;;;;;37.00;22.42;;;-0.70;99.90;;;;;;4900724;28;90497;-30
2022/12/11 00:06:59;;;;;;;38.60;23.73;;;-0.60;99.90;;;;;;4901856;28;90869;-31
2022/12/11 00:09:25;;;;;;;38.83;24.08;;;-0.60;99.90;;;;;;4900924;28;88386;-30
2022/12/11 00:11:51;;;;;;;37.55;22.73;;;-0.60;99.90;;;;;;4901830;28;90546;-31
2022/12/11 00:14:16;;;;;;;36.35;23.88;;;-0.60;99.90;;;;;;4901572;28;89560;-31
2022/12/11 00:16:42;;;;;;;40.53;22.67;;;-0.60;99.90;;;;;;4901557;28;88766;-31
2022/12/11 00:19:07;;;;;;;35.25;24.38;;;-0.60;99.90;;;;;;4901722;28;89740;-31
2022/12/11 00:21:33;;;;;;;41.22;24.65;;;-0.60;99.90;;;;;;4901901;28;89206;-34
2022/12/11 00:23:59;;;;;;;42.38;24.60;;;-0.50;99.90;;;;;;4901272;28;89482;-30
2022/12/11 00:26:25;;;;;;;37.95;24.63;;;-0.60;99.90;;;;;;4900686;28;89304;-29
2022/12/11 00:28:53;;;;;;;40.20;23.27;;;-0.50;99.90;;;;;;4901412;28;89546;-32
2022/12/11 00:31:20;;;;;;;30.42;21.50;;;-0.60;99.90;;;;;;4901483;28;90030;-32
2022/12/11 00:33:50;;;;;;;35.58;22.60;;;-0.50;99.90;;;;;;4900838;28;90532;-30
2022/12/11 00:36:22;;;;;;;38.80;22.83;;;-0.50;99.90;;;;;;4900846;28;90199;-32
2022/12/11 00:38:48;;;;;;;40.08;24.83;;;-0.50;99.90;;;;;;4901830;28;89176;-31
2022/12/11 00:41:15;;;;;;;40.72;23.08;;;-0.50;99.90;;;;;;4900782;28;90134;-32
2022/12/11 00:43:41;;;;;;;37.22;24.85;;;-0.50;99.90;;;;;;4900815;28;89104;-31
2022/12/11 00:46:07;;;;;;;42.90;22.00;;;-0.50;99.90;;;;;;4901502;28;90564;-28
2022/12/11 00:48:33;;;;;;;39.17;23.35;;;-0.50;99.90;;;;;;4900638;28;89422;-31
2022/12/11 00:50:58;;;;;;;34.50;22.40;;;-0.50;99.90;;;;;;4900972;28;89229;-32
2022/12/11 00:53:24;;;;;;;31.92;22.20;;;-0.50;99.90;;;;;;4900197;28;91013;-31
2022/12/11 00:55:50;;;;;;;37.80;22.02;;;-0.50;99.90;;;;;;4900875;28;90128;-33
2022/12/11 00:58:16;;;;;;;35.95;21.85;;;-0.50;99.90;;;;;;4900963;28;89432;-31
2022/12/11 01:00:42;;;;;;;37.30;21.50;;;-0.50;99.90;;;;;;4900731;28;89964;-32
2022/12/11 01:03:09;;;;;;;32.97;21.80;;;-0.50;99.90;;;;;;4915241;28;89540;-31
2022/12/11 01:05:35;;;;;;;33.35;19.83;;;-0.40;99.90;;;;;;4900275;28;89711;-31
2022/12/11 01:08:02;;;;;;;34.38;22.17;;;-0.40;99.90;;;;;;4900553;28;89447;-32
2022/12/11 01:10:28;;;;;;;31.92;19.77;;;-0.40;99.90;;;;;;4901160;28;90551;-31
2022/12/11 01:13:03;;;;;;;34.00;21.55;;;-0.40;99.90;;;;;;4900815;28;89410;-31
2022/12/11 01:15:32;;;;;;;38.33;23.85;;;-0.40;99.90;;;;;;4899734;28;88937;-34
2022/12/11 01:17:58;;;;;;;42.47;21.65;;;-0.30;99.90;;;;;;4900281;28;88990;-32
2022/12/11 01:20:25;;;;;;;49.42;24.73;;;-0.40;99.90;;;;;;4901026;28;90099;-33
2022/12/11 01:22:56;;;;;;;37.70;23.08;;;-0.40;99.90;;;;;;4900781;28;92139;-32
2022/12/11 01:25:22;;;;;;;34.72;20.23;;;-0.40;99.90;;;;;;4900367;28;89349;-31
2022/12/11 01:27:50;;;;;;;34.13;21.92;;;-0.30;99.90;;;;;;4900019;28;89431;-34
2022/12/11 01:30:17;;;;;;;37.72;22.30;;;-0.30;99.90;;;;;;4900566;28;88995;-31
2022/12/11 01:32:42;;;;;;;36.00;22.13;;;-0.30;99.90;;;;;;4900562;28;90155;-31
2022/12/11 01:35:10;;;;;;;40.53;22.63;;;-0.30;99.90;;;;;;4900267;28;89900;-33
2022/12/11 01:37:35;;;;;;;33.45;18.90;;;-0.30;99.90;;;;;;4900287;28;88484;-33
2022/12/11 01:40:02;;;;;;;42.92;23.25;;;-0.30;99.90;;;;;;4900582;28;90222;-32
2022/12/11 01:42:28;;;;;;;43.15;21.33;;;-0.30;99.90;;;;;;4899094;28;91570;-31
2022/12/11 01:45:21;;;;;;;39.22;24.33;;;-0.20;99.90;;;;;;4900484;28;90044;-34
2022/12/11 01:47:52;;;;;;;39.67;22.60;;;-0.20;99.90;;;;;;4899960;28;87484;-30
2022/12/11 01:50:18;;;;;;;37.17;22.80;;;-0.20;99.90;;;;;;4900245;28;90367;-30
2022/12/11 01:52:46;;;;;;;38.88;22.30;;;-0.20;99.90;;;;;;4899471;28;89587;-33
2022/12/11 01:55:12;;;;;;;43.80;23.92;;;-0.20;99.90;;;;;;4899913;28;89371;-34
2022/12/11 01:57:42;;;;;;;48.85;25.30;;;-0.20;99.90;;;;;;4900520;28;88155;-31
2022/12/11 02:00:08;;;;;;;42.75;25.50;;;-0.20;99.90;;;;;;4900398;28;91878;-31
2022/12/11 02:02:34;;;;;;;45.30;26.10;;;-0.20;99.90;;;;;;4899174;28;90460;-30
2022/12/11 02:05:04;;;;;;;46.55;21.58;;;-0.20;99.90;;;;;;4900137;28;89828;-34
2022/12/11 02:07:37;;;;;;;43.13;24.48;;;-0.20;99.90;;;;;;4899752;28;89913;-32
2022/12/11 02:10:03;;;;;;;40.78;25.38;;;-0.20;99.90;;;;;;4899855;28;90927;-32
2022/12/11 02:12:48;;;;;;;43.42;25.42;;;-0.20;99.90;;;;;;4914651;28;89311;-32
2022/12/11 02:15:14;;;;;;;41.80;21.90;;;-0.10;99.90;;;;;;4899736;28;90048;-32
2022/12/11 02:17:43;;;;;;;40.63;24.13;;;-0.10;99.90;;;;;;4899849;28;89310;-33
2022/12/11 02:20:40;;;;;;;42.33;25.55;;;-0.10;99.90;;;;;;4900025;28;89989;-31
2022/12/11 02:23:12;;;;;;;43.93;23.97;;;-0.10;99.90;;;;;;4897664;28;90422;-31
2022/12/11 02:26:13;;;;;;;45.40;21.80;;;-0.10;99.90;;;;;;4899585;28;90019;-31
2022/12/11 02:28:46;;;;;;;42.72;25.20;;;-0.10;99.90;;;;;;4889347;28;88326;-31
2022/12/11 02:31:22;;;;;;;46.22;24.13;;;0.00;99.90;;;;;;4902871;28;90379;-34
2022/12/11 02:33:55;;;;;;;44.92;22.73;;;-0.10;99.90;;;;;;4903344;28;90371;-34
2022/12/11 02:36:25;;;;;;;36.08;23.65;;;-0.10;99.90;;;;;;4902996;28;89416;-31
2022/12/11 02:38:53;;;;;;;42.72;24.42;;;0.00;99.90;;;;;;4902807;28;88994;-31
2022/12/11 02:41:22;;;;;;;41.42;23.92;;;0.00;99.90;;;;;;4903189;28;90220;-30
2022/12/11 02:43:49;;;;;;;47.55;25.23;;;0.00;99.90;;;;;;4903083;28;89712;-30
2022/12/11 02:46:18;;;;;;;41.65;24.33;;;0.00;99.90;;;;;;4902466;28;89603;-32
2022/12/11 02:48:44;;;;;;;;;;;0.00;99.90;;;;;;4903058;28;89045;-33
2022/12/11 02:51:13;;;;;;;38.28;22.92;;;0.00;99.90;;;;;;4904802;28;90409;-31
2022/12/11 02:53:41;;;;;;;41.50;22.80;;;0.00;99.90;;;;;;4902172;28;90046;-33
2022/12/11 02:56:20;;;;;;;42.20;25.48;;;0.00;99.90;;;;;;4902806;28;89654;-33
2022/12/11 02:58:56;;;;;;;39.60;24.63;;;0.00;99.90;;;;;;4902558;28;90259;-32
2022/12/11 03:01:22;;;;;;;40.83;24.20;;;0.00;99.90;;;;;;4902795;28;90277;-31
2022/12/11 03:03:48;;;;;;;42.35;23.85;;;0.00;99.90;;;;;;4901924;28;90084;-31
2022/12/11 03:06:19;;;;;;;42.47;25.05;;;0.00;99.90;;;;;;4902461;28;89956;-33
2022/12/11 03:08:44;;;;;;;37.10;22.63;;;0.00;99.90;;;;;;4902561;28;87508;-32
2022/12/11 03:11:11;;;;;;;40.67;24.45;;;0.00;99.90;;;;;;4902527;28;90327;-33
2022/12/11 03:13:39;;;;;;;41.55;23.60;;;0.00;99.90;;;;;;4901492;28;89664;-30
2022/12/11 03:16:17;;;;;;;37.08;23.88;;;0.00;99.90;;;;;;4902502;28;89939;-34
2022/12/11 03:19:02;;;;;;;41.15;23.48;;;0.10;99.90;;;;;;4902574;28;87818;-33
2022/12/11 03:21:54;;;;;;;35.97;23.17;;;0.00;99.90;;;;;;4902539;28;89694;-32
2022/12/11 03:24:44;;;;;;;46.25;22.92;;;0.10;99.90;;;;;;4900656;28;90406;-37
2022/12/11 03:27:28;;;;;;;37.88;21.55;;;0.10;99.90;;;;;;4902031;28;90662;-34
2022/12/11 03:29:59;;;;;;;43.00;23.88;;;0.00;99.90;;;;;;4902983;28;88205;-32
2022/12/11 03:32:35;;;;;;;37.50;22.67;;;0.10;99.90;;;;;;4902189;28;90178;-32
2022/12/11 03:35:29;;;;;;;39.67;20.95;;;0.10;99.90;;;;;;4901682;28;89833;-33
2022/12/11 03:37:59;;;;;;;52.80;26.20;;;0.10;99.90;;;;;;4901800;28;89894;-33
2022/12/11 03:40:26;;;;;;;38.15;24.90;;;0.10;99.90;;;;;;4900897;28;89160;-34
2022/12/11 03:42:55;;;;;;;39.55;24.92;;;0.10;99.90;;;;;;4902188;28;89633;-31
2022/12/11 03:45:22;;;;;;;41.35;24.80;;;0.10;99.90;;;;;;4900716;28;91153;-33
2022/12/11 03:47:50;;;;;;;46.83;24.80;;;0.00;99.90;;;;;;4901935;28;89958;-32
2022/12/11 03:50:19;;;;;;;40.72;23.83;;;0.10;99.90;;;;;;4901728;28;90007;-33
2022/12/11 03:52:46;;;;;;;40.30;25.42;;;0.10;99.90;;;;;;4901096;28;90107;-33
2022/12/11 03:55:14;;;;;;;39.55;24.52;;;0.10;99.90;;;;;;4902107;28;89125;-34
2022/12/11 03:57:40;;;;;;;;;;;0.20;99.90;;;;;;4902659;28;89266;-34
2022/12/11 04:00:10;;;;;;;41.90;25.52;;;0.10;99.90;;;;;;4903826;28;88927;-33
2022/12/11 04:02:35;;;;;;;44.30;24.77;;;0.10;99.90;;;;;;4901292;28;90352;-32
2022/12/11 04:05:01;;;;;;;46.00;25.77;;;0.10;99.90;;;;;;4901687;28;89947;-32
2022/12/11 04:07:27;;;;;;;41.80;24.10;;;0.10;99.90;;;;;;4901748;28;88432;-31
2022/12/11 04:09:53;;;;;;;49.15;26.38;;;0.10;99.90;;;;;;4901944;28;88977;-32
2022/12/11 04:12:19;;;;;;;50.85;27.13;;;0.10;99.90;;;;;;4902194;28;90087;-32
2022/12/11 04:15:03;;;;;;;43.42;26.35;;;0.10;99.90;;;;;;4900543;28;90591;-33
2022/12/11 04:26:11;;;;;;;49.95;27.98;;;0.10;99.90;;;;;;4901514;28;89506;-30
2022/12/11 04:28:37;;;;;;;48.03;27.20;;;0.10;99.90;;;;;;4900550;28;89608;-32
2022/12/11 04:31:03;;;;;;;41.92;25.88;;;0.20;99.90;;;;;;4901465;28;90342;-32
2022/12/11 04:33:29;;;;;;;45.63;25.80;;;0.10;99.90;;;;;;4901719;28;90011;-31
2022/12/11 04:35:59;;;;;;;38.40;25.23;;;0.10;99.90;;;;;;4900645;28;90298;-31
2022/12/11 04:38:25;;;;;;;42.47;25.92;;;0.10;99.90;;;;;;4900421;28;89736;-32
2022/12/11 04:41:09;;;;;;;43.20;26.42;;;0.20;99.90;;;;;;4900687;28;88207;-33
2022/12/11 04:43:34;;;;;;;54.05;28.02;;;0.20;99.90;;;;;;4900280;28;90574;-30
2022/12/11 04:46:06;;;;;;;40.85;26.50;;;0.20;99.90;;;;;;4901035;28;90293;-33
2022/12/11 04:48:32;;;;;;;52.15;29.25;;;0.20;99.90;;;;;;4901316;28;89643;-31
2022/12/11 04:50:57;;;;;;;43.90;27.40;;;0.20;99.90;;;;;;4900893;28;89684;-32
2022/12/11 04:53:24;;;;;;;62.40;30.85;;;0.20;99.90;;;;;;4900666;28;90389;-35
2022/12/11 04:55:49;;;;;;;53.03;26.65;;;0.10;99.90;;;;;;4901146;28;89175;-31
2022/12/11 04:58:15;;;;;;;45.95;26.70;;;0.20;99.90;;;;;;4901289;28;88328;-32
2022/12/11 05:00:41;;;;;;;50.28;27.85;;;0.20;99.90;;;;;;4900871;28;88344;-32
2022/12/11 05:03:07;;;;;;;47.10;26.55;;;0.20;99.90;;;;;;4901138;28;90397;-33
2022/12/11 05:05:32;;;;;;;51.08;27.92;;;0.20;99.90;;;;;;4898732;28;90628;-35
2022/12/11 05:07:58;;;;;;;52.08;28.50;;;0.20;99.90;;;;;;4900854;28;91507;-30
2022/12/11 05:10:23;;;;;;;44.30;27.25;;;0.20;99.90;;;;;;4900927;28;88860;-36
2022/12/11 05:12:49;;;;;;;48.03;24.65;;;0.20;99.90;;;;;;4900873;28;90651;-30
2022/12/11 05:15:15;;;;;;;58.03;28.52;;;0.20;99.90;;;;;;4901283;28;89592;-31
2022/12/11 05:17:40;;;;;;;51.47;26.60;;;0.20;99.90;;;;;;4900147;28;89355;-33
2022/12/11 05:20:06;;;;;;;46.40;27.52;;;0.20;99.90;;;;;;4900864;28;89681;-31
2022/12/11 05:22:32;;;;;;;55.08;28.52;;;0.20;99.90;;;;;;4899967;28;91303;-34
2022/12/11 05:24:58;;;;;;;48.33;27.35;;;0.20;99.90;;;;;;4900435;28;90128;-32
2022/12/11 05:27:23;;;;;;;47.65;25.40;;;0.20;99.90;;;;;;4900405;28;89697;-34
2022/12/11 05:29:49;;;;;;;50.38;27.77;;;0.20;99.90;;;;;;4900139;28;89297;-31
2022/12/11 05:32:14;;;;;;;45.25;27.10;;;0.20;99.90;;;;;;4900334;28;90285;-31
2022/12/11 05:34:40;;;;;;;48.53;27.58;;;0.20;99.90;;;;;;4898534;28;90173;-33
2022/12/11 05:37:06;;;;;;;46.95;25.63;;;0.20;99.90;;;;;;4900380;28;89249;-32
2022/12/11 05:39:32;;;;;;;45.28;24.52;;;0.30;99.90;;;;;;4900256;28;88601;-31
2022/12/11 05:41:57;;;;;;;48.97;27.73;;;0.20;99.90;;;;;;4900606;28;90441;-31
2022/12/11 05:44:23;;;;;;;46.05;24.63;;;0.20;99.90;;;;;;4900368;28;89848;-30
2022/12/11 05:46:49;;;;;;;42.10;25.38;;;0.20;99.90;;;;;;4900031;28;89737;-32
2022/12/11 05:49:15;;;;;;;46.75;24.88;;;0.20;99.90;;;;;;4900710;28;90240;-32
2022/12/11 05:51:42;;;;;;;45.33;25.23;;;0.20;99.90;;;;;;4899907;28;90222;-33
2022/12/11 05:54:09;;;;;;;45.00;25.63;;;0.20;99.90;;;;;;4899435;28;90964;-32
2022/12/11 05:56:36;;;;;;;45.03;25.92;;;0.20;99.90;;;;;;4899991;28;90519;-32
2022/12/11 05:59:03;;;;;;;37.47;25.35;;;0.20;99.90;;;;;;4900604;28;89338;-32
2022/12/11 06:01:38;;;;;;;42.80;22.42;;;0.30;99.90;;;;;;4899757;28;90333;-30
2022/12/11 06:04:06;;;;;;;43.20;26.73;;;0.30;99.90;;;;;;4903755;28;89564;-32
2022/12/11 06:06:32;;;;;;;43.25;23.33;;;0.30;99.90;;;;;;4903323;28;89649;-30
2022/12/11 06:08:59;;;;;;;46.15;26.33;;;0.30;99.90;;;;;;4903517;28;89873;-30
2022/12/11 06:11:28;;;;;;;43.20;25.42;;;0.30;99.90;;;;;;4903507;28;90674;-31
2022/12/11 06:13:54;;;;;;;41.92;24.17;;;0.30;99.90;;;;;;4904011;28;89635;-34
2022/12/11 06:16:21;;;;;;;44.65;25.92;;;0.30;99.90;;;;;;4903567;28;90354;-31
2022/12/11 06:18:47;;;;;;;37.92;24.40;;;0.20;99.90;;;;;;4916295;28;88826;-29
2022/12/11 06:21:23;;;;;;;41.05;24.77;;;0.20;99.90;;;;;;4903722;28;90696;-34
2022/12/11 06:23:50;;;;;;;41.50;24.65;;;0.20;99.90;;;;;;4902887;28;91153;-34
2022/12/11 06:26:17;;;;;;;42.93;25.23;;;0.30;99.90;;;;;;4893086;28;88566;-32
2022/12/11 06:28:43;;;;;;;50.17;26.52;;;0.30;99.90;;;;;;4903104;28;90061;-33
2022/12/11 06:31:09;;;;;;;41.40;26.33;;;0.20;99.90;;;;;;4903655;28;89402;-32
2022/12/11 06:33:35;;;;;;;41.20;24.23;;;0.30;99.90;;;;;;4902791;28;89825;-30
2022/12/11 06:36:07;;;;;;;42.85;25.00;;;0.30;99.90;;;;;;4903087;28;89820;-32
2022/12/11 06:38:32;;;;;;;43.90;26.70;;;0.30;99.90;;;;;;4902456;28;89170;-31
2022/12/11 06:40:59;;;;;;;39.15;25.05;;;0.30;99.90;;;;;;4903001;28;90143;-31
2022/12/11 06:43:25;;;;;;;45.28;26.27;;;0.30;99.90;;;;;;4901939;28;90771;-32
2022/12/11 06:45:51;;;;;;;53.40;25.58;;;0.30;99.90;;;;;;4902637;28;90004;-31
2022/12/11 06:48:17;;;;;;;47.20;28.55;;;0.30;99.90;;;;;;4903267;28;88587;-32
2022/12/11 06:50:43;;;;;;;45.53;27.55;;;0.40;99.90;;;;;;4901269;28;90300;-32
2022/12/11 06:53:10;;;;;;;39.80;26.83;;;0.30;99.90;;;;;;4902939;28;90144;-33
2022/12/11 06:55:36;;;;;;;41.13;26.20;;;0.30;99.90;;;;;;4902136;28;89246;-31
2022/12/11 06:58:02;;;;;;;38.33;24.80;;;0.30;99.90;;;;;;4902791;28;89853;-32
2022/12/11 07:00:28;;;;;;;39.38;23.95;;;0.30;99.90;;;;;;4902804;28;89643;-34
2022/12/11 07:02:53;;;;;;;52.03;26.80;;;0.30;99.90;;;;;;4902418;28;89764;-31
2022/12/11 07:05:19;;;;;;;48.08;25.80;;;0.30;99.90;;;;;;4901564;28;89672;-34
2022/12/11 07:07:45;;;;;;;52.13;25.25;;;0.40;99.90;;;;;;4901878;28;90082;-32
2022/12/11 07:10:11;;;;;;;54.60;24.52;;;0.30;99.90;;;;;;4902250;28;89837;-31
2022/12/11 07:12:38;;;;;;;38.47;26.30;;;0.30;99.90;;;;;;4902369;28;89570;-31
2022/12/11 07:15:04;;;;;;;42.17;25.77;;;0.30;99.90;;;;;;4899993;28;89427;-32
2022/12/11 07:17:30;;;;;;;50.13;25.30;;;0.30;99.90;;;;;;4902156;28;88972;-31
2022/12/11 07:19:56;;;;;;;42.50;27.55;;;0.30;99.90;;;;;;4902845;28;89810;-32
2022/12/11 07:22:22;;;;;;;45.92;25.40;;;0.30;99.90;;;;;;4901608;28;89570;-33
2022/12/11 07:24:47;;;;;;;40.92;25.08;;;0.30;99.90;;;;;;4902672;28;90508;-32
2022/12/11 07:27:13;;;;;;;44.78;25.58;;;0.30;99.90;;;;;;4901972;28;87537;-33
2022/12/11 07:29:38;;;;;;;41.75;24.50;;;0.30;99.90;;;;;;4902224;28;89127;-31
2022/12/11 07:32:04;;;;;;;42.25;26.70;;;0.30;99.90;;;;;;4902249;28;90979;-31
2022/12/11 07:34:30;;;;;;;35.85;24.88;;;0.30;99.90;;;;;;4901725;28;90879;-30
2022/12/11 07:36:56;;;;;;;50.03;24.38;;;0.30;99.90;;;;;;4902586;28;87604;-31
2022/12/11 07:39:21;;;;;;;46.47;25.92;;;0.40;99.90;;;;;;4902359;28;89061;-30
2022/12/11 07:41:47;;;;;;;49.65;26.35;;;0.40;99.90;;;;;;4901985;28;89913;-35
2022/12/11 07:44:12;;;;;;;43.08;26.13;;;0.40;99.90;;;;;;4901943;28;90074;-34
2022/12/11 07:46:39;;;;;;;46.75;26.48;;;0.30;99.90;;;;;;4901478;28;88927;-34
2022/12/11 07:49:05;;;;;;;42.08;26.50;;;0.30;99.90;;;;;;4902064;28;90382;-33
2022/12/11 07:51:34;;;;;;;45.95;25.13;;;0.30;99.90;;;;;;4900919;28;89442;-33
2022/12/11 07:54:15;;;;;;;57.38;29.33;;;0.30;99.90;;;;;;4905118;28;89548;-32
2022/12/11 07:56:45;;;;;;;47.78;27.45;;;0.30;99.90;;;;;;4901583;28;89793;-34
2022/12/11 07:59:10;;;;;;;45.08;25.55;;;0.30;99.90;;;;;;4902325;28;90005;-31
2022/12/11 08:01:37;;;;;;;41.15;28.13;;;0.40;99.90;;;;;;4901716;28;89592;-33
2022/12/11 08:04:05;;;;;;;48.00;27.70;;;0.40;99.90;;;;;;4901767;28;90824;-32
2022/12/11 08:06:33;;;;;;;40.25;26.13;;;0.40;99.90;;;;;;4901815;28;88262;-32
2022/12/11 08:09:00;;;;;;;54.58;28.65;;;0.30;99.90;;;;;;4902708;28;91022;-33
2022/12/11 08:11:26;;;;;;;45.88;28.77;;;0.30;99.90;;;;;;4902411;28;89753;-30
2022/12/11 08:13:53;;;;;;;52.15;28.17;;;0.30;99.90;;;;;;4907453;28;89429;-33
2022/12/11 08:16:18;;;;;;;53.95;30.27;;;0.30;99.90;;;;;;4902985;28;90002;-30
2022/12/11 08:18:45;;;;;;;46.33;25.40;;;0.30;99.90;;;;;;4901359;28;89807;-34
2022/12/11 08:21:12;;;;;;;51.65;27.55;;;0.40;99.90;;;;;;4901483;28;90593;-30
2022/12/11 08:23:38;;;;;;;53.63;31.20;;;0.40;99.90;;;;;;4901324;28;91441;-31
2022/12/11 08:26:10;;;;;;;41.33;25.92;;;0.40;99.90;;;;;;4901585;28;88991;-32
2022/12/11 08:28:36;;;;;;;48.03;30.45;;;0.40;99.90;;;;;;4902962;28;90578;-32
2022/12/11 08:31:07;;;;;;;56.80;28.40;;;0.40;99.90;;;;;;4905026;28;89583;-31
2022/12/11 08:33:33;;;;;;;57.10;28.83;;;0.30;99.90;;;;;;4901496;28;89290;-34
2022/12/11 08:36:02;;;;;;;58.90;28.90;;;0.40;99.90;;;;;;4901712;28;89132;-33
2022/12/11 08:38:28;;;;;;;46.35;28.10;;;0.40;99.90;;;;;;4904801;28;90011;-31
2022/12/11 08:40:53;;;;;;;55.22;33.25;;;0.40;99.90;;;;;;4907519;28;88459;-31
2022/12/11 08:43:19;;;;;;;51.38;31.45;;;0.30;99.90;;;;;;4910326;28;89496;-30
2022/12/11 08:45:45;;;;;;;51.80;29.30;;;0.40;99.90;;;;;;4912939;28;88369;-32
2022/12/11 08:48:11;;;;;;;51.72;28.65;;;0.30;99.90;;;;;;4900730;28;90326;-29
2022/12/11 08:50:36;;;;;;;50.50;26.92;;;0.40;99.90;;;;;;4901944;28;90688;-32
2022/12/11 08:53:02;;;;;;;49.42;27.85;;;0.40;99.90;;;;;;4901869;28;88933;-31
2022/12/11 08:55:28;;;;;;;50.05;29.17;;;0.40;99.90;;;;;;4903502;28;89831;-34
2022/12/11 08:57:54;;;;;;;41.22;28.38;;;0.30;99.90;;;;;;4906495;28;90299;-30
2022/12/11 09:00:20;;;;;;;44.40;27.58;;;0.40;99.90;;;;;;4920135;28;89678;-35
2022/12/11 09:02:47;;;;;;;47.10;27.45;;;0.50;99.90;;;;;;4925577;28;88931;-32
2022/12/11 09:05:12;;;;;;;50.78;27.20;;;0.50;99.90;;;;;;4923089;28;88765;-33
2022/12/11 09:07:38;;;;;;;44.85;26.80;;;0.40;99.90;;;;;;4901746;28;88730;-34
2022/12/11 09:10:05;;;;;;;50.00;27.88;;;0.40;99.90;;;;;;4908997;28;90124;-32
2022/12/11 09:12:35;;;;;;;50.35;28.17;;;0.40;99.90;;;;;;4918449;28;90593;-32
2022/12/11 09:15:02;;;;;;;44.72;27.58;;;0.50;99.90;;;;;;4918239;28;88627;-31
2022/12/11 09:17:28;;;;;;;47.53;29.77;;;0.50;99.90;;;;;;4916290;28;90126;-30
2022/12/11 09:19:53;;;;;;;44.78;26.95;;;0.50;99.90;;;;;;4915803;28;89547;-33
2022/12/11 09:22:19;;;;;;;50.00;27.65;;;0.50;99.90;;;;;;4914184;28;89796;-34
2022/12/11 09:24:45;;;;;;;46.90;28.20;;;0.50;99.90;;;;;;5004018;22;88858;-31
2022/12/11 09:27:11;;;;;;;49.03;30.50;;;0.50;99.90;;;;;;4972789;28;90350;-31
2022/12/11 09:29:38;;;;;;;47.55;29.23;;;0.50;99.90;;;;;;4974421;28;91077;-31
2022/12/11 09:32:03;;;;;;;47.83;26.23;;;0.50;99.90;;;;;;4978591;28;89473;-30
2022/12/11 09:34:29;;;;;;;48.53;23.20;;;0.50;99.90;;;;;;4984297;28;88543;-32
2022/12/11 09:36:55;;;;;;;44.03;26.42;;;0.50;99.90;;;;;;4985510;28;90371;-31
2022/12/11 09:39:21;;;;;;;55.92;29.48;;;0.50;99.90;;;;;;4986195;28;89879;-32
2022/12/11 09:41:58;;;;;;;43.65;24.65;;;0.50;99.90;;;;;;4987568;28;89693;-31
2022/12/11 09:44:27;;;;;;;47.23;28.23;;;0.50;99.90;;;;;;4984319;28;88161;-34
2022/12/11 09:46:52;;;;;;;;;;;0.50;99.90;;;;;;4982713;28;90040;-31
2022/12/11 09:49:30;;;;;;;39.70;23.70;;;0.60;99.90;;;;;;4982959;28;89466;-32
2022/12/11 09:52:27;;;;;;;47.23;25.67;;;0.50;99.90;;;;;;4977173;28;88359;-33
2022/12/11 09:54:57;;;;;;;41.15;27.90;;;0.50;99.90;;;;;;4965856;28;89173;-32
2022/12/11 09:57:53;;;;;;;45.30;28.35;;;0.50;99.90;;;;;;4962481;28;89321;-32
2022/12/11 10:00:45;;;;;;;48.83;27.58;;;0.50;99.90;;;;;;4963068;28;90994;-34
2022/12/11 10:03:44;;;;;;;44.95;27.52;;;0.50;99.90;;;;;;4959289;28;90620;-30
2022/12/11 10:06:30;;;;;;;49.72;28.27;;;0.50;99.90;;;;;;4959255;28;89349;-32
2022/12/11 10:08:55;;;;;;;45.28;26.45;;;0.50;99.90;;;;;;4958990;28;89361;-33
2022/12/11 10:11:42;;;;;;;48.40;27.17;;;0.50;99.90;;;;;;4961641;28;89782;-30
2022/12/11 10:14:54;;;;;;;48.58;28.23;;;0.50;99.90;;;;;;4972324;28;89972;-31
2022/12/11 10:17:26;;;;;;;45.08;29.10;;;0.50;99.90;;;;;;4954201;28;87634;-33
2022/12/11 10:19:53;;;;;;;50.45;30.02;;;0.50;99.90;;;;;;4972420;28;90004;-30
2022/12/11 10:22:31;;;;;;;44.22;29.15;;;0.50;99.90;;;;;;4974729;28;89523;-31
2022/12/11 10:25:00;;;;;;;50.63;29.37;;;0.50;99.90;;;;;;4970633;28;89516;-33
2022/12/11 10:27:34;;;;;;;59.75;31.35;;;0.50;99.90;;;;;;4975283;28;89369;-31
2022/12/11 10:30:16;;;;;;;49.30;29.60;;;0.50;99.90;;;;;;4982159;28;90575;-30
2022/12/11 10:32:49;;;;;;;53.03;31.50;;;0.50;99.90;;;;;;4969040;28;89561;-32
2022/12/11 10:35:41;;;;;;;51.55;29.65;;;0.50;99.90;;;;;;4982547;28;89438;-34
2022/12/11 10:38:21;;;;;;;49.50;31.08;;;0.50;99.90;;;;;;4977215;28;89985;-30
2022/12/11 10:41:08;;;;;;;52.78;29.27;;;0.50;99.90;;;;;;4978073;28;90424;-32
2022/12/11 10:43:45;;;;;;;47.55;27.98;;;0.60;99.90;;;;;;4975295;28;89863;-34
2022/12/11 10:46:24;;;;;;;45.65;30.02;;;0.50;99.90;;;;;;4968231;28;90990;-32
2022/12/11 10:48:58;;;;;;;52.58;29.33;;;0.60;99.90;;;;;;4971060;28;88803;-32
2022/12/11 10:51:32;;;;;;;46.47;30.35;;;0.50;99.90;;;;;;4968792;28;89854;-34
2022/12/11 10:54:26;;;;;;;52.95;29.98;;;0.60;99.90;;;;;;4960505;28;89658;-29
2022/12/11 10:56:52;;;;;;;49.67;30.75;;;0.60;99.90;;;;;;4959579;28;90542;-31
2022/12/11 10:59:42;;;;;;;52.47;29.33;;;0.60;99.90;;;;;;4959021;28;88127;-34
2022/12/11 11:02:40;;;;;;;47.35;28.38;;;0.60;99.90;;;;;;4958883;28;91132;-33
2022/12/11 11:05:34;;;;;;;37.60;25.80;;;0.60;99.90;;;;;;4958736;28;89242;-32
2022/12/11 11:08:21;;;;;;;48.25;29.33;;;0.60;99.90;;;;;;4959364;28;89948;-30
2022/12/11 11:10:58;;;;;;;46.72;29.05;;;0.60;99.90;;;;;;4965822;28;89330;-34
2022/12/11 11:13:28;;;;;;;54.40;30.55;;;0.70;99.90;;;;;;4969246;28;90280;-35
2022/12/11 11:16:05;;;;;;;45.13;29.00;;;0.70;99.90;;;;;;4968507;28;89145;-32
2022/12/11 11:18:32;;;;;;;49.20;29.13;;;0.70;99.90;;;;;;4968505;28;89564;-31
2022/12/11 11:20:59;;;;;;;42.85;27.15;;;0.70;99.90;;;;;;4962445;28;90236;-33
2022/12/11 11:23:26;;;;;;;43.63;28.55;;;0.70;99.90;;;;;;4965454;28;90306;-35
2022/12/11 11:25:53;;;;;;;42.80;29.42;;;0.70;99.90;;;;;;4962396;28;89105;-31
2022/12/11 11:28:26;;;;;;;43.45;27.45;;;0.70;99.90;;;;;;4967580;28;89078;-31
2022/12/11 11:30:57;;;;;;;42.92;27.33;;;0.70;99.90;;;;;;4973249;28;88733;-32
2022/12/11 11:33:23;;;;;;;42.88;26.40;;;0.70;99.90;;;;;;4973312;28;90143;-31
2022/12/11 11:36:04;;;;;;;39.22;26.25;;;0.70;99.90;;;;;;4965754;28;89125;-33
2022/12/11 11:38:48;;;;;;;42.72;27.35;;;0.70;99.90;;;;;;4958984;28;89426;-31
2022/12/11 11:41:24;;;;;;;44.33;29.17;;;0.70;99.90;;;;;;4958496;28;89433;-31
2022/12/11 11:44:09;;;;;;;46.05;27.27;;;0.70;99.90;;;;;;4962241;28;90346;-34
2022/12/11 11:46:43;;;;;;;44.55;27.35;;;0.70;99.90;;;;;;4956191;28;90389;-31
2022/12/11 11:49:23;;;;;;;38.85;26.65;;;0.70;99.90;;;;;;4960083;28;91947;-32
2022/12/11 11:52:14;;;;;;;43.85;25.55;;;0.80;99.90;;;;;;4960074;28;89063;-33
2022/12/11 11:55:08;;;;;;;33.42;23.42;;;0.80;99.90;;;;;;4958328;28;90261;-32
2022/12/11 11:57:46;;;;;;;39.92;26.20;;;0.80;99.90;;;;;;4957821;28;89948;-35
2022/12/11 12:00:26;;;;;;;41.70;25.58;;;0.80;99.90;;;;;;4956577;28;89609;-34
2022/12/11 12:03:15;;;;;;;49.35;27.25;;;0.90;99.90;;;;;;4958109;28;89147;-34
2022/12/11 12:05:56;;;;;;;45.10;27.08;;;0.90;99.90;;;;;;4957431;28;91003;-33
2022/12/11 12:08:56;;;;;;;38.85;26.13;;;0.90;99.90;;;;;;4957465;28;89620;-34
2022/12/11 12:11:50;;;;;;;41.92;27.20;;;0.80;99.90;;;;;;4957639;28;90688;-34
2022/12/11 12:14:34;;;;;;;49.53;28.27;;;0.90;99.90;;;;;;4927345;28;89527;-35
2022/12/11 12:17:08;;;;;;;41.53;28.45;;;0.80;99.90;;;;;;4957749;28;89542;-32
2022/12/11 12:19:56;;;;;;;50.33;27.20;;;0.90;99.90;;;;;;4956611;28;88294;-35
2022/12/11 12:22:43;;;;;;;47.03;27.00;;;0.90;99.90;;;;;;4957212;28;89791;-33
2022/12/11 12:25:34;;;;;;;46.45;27.33;;;0.90;99.90;;;;;;4956863;28;89683;-32
2022/12/11 12:28:35;;;;;;;43.17;28.65;;;0.90;99.90;;;;;;4956962;28;90324;-31
2022/12/11 12:31:19;;;;;;;42.90;26.90;;;0.90;99.90;;;;;;4957731;28;89734;-34
2022/12/11 12:34:09;;;;;;;48.03;27.83;;;0.90;99.90;;;;;;4956977;28;89815;-34
2022/12/11 12:36:53;;;;;;;41.60;28.23;;;0.90;99.90;;;;;;4956839;28;89424;-33
2022/12/11 12:39:46;;;;;;;39.47;26.75;;;0.90;99.90;;;;;;4956568;28;90581;-31
2022/12/11 12:42:31;;;;;;;47.58;29.20;;;0.90;99.90;;;;;;4955590;28;89656;-31
2022/12/11 12:45:12;;;;;;;45.67;28.05;;;0.90;99.90;;;;;;4957244;28;90171;-33
2022/12/11 12:47:45;;;;;;;48.10;29.38;;;0.90;99.90;;;;;;4957086;28;88760;-32
2022/12/11 12:50:23;;;;;;;48.92;29.40;;;0.90;99.90;;;;;;4956279;28;90068;-35
2022/12/11 12:52:51;;;;;;;42.10;26.83;;;0.90;99.90;;;;;;4956798;28;89114;-32
2022/12/11 12:55:27;;;;;;;49.92;29.77;;;0.90;99.90;;;;;;4957434;28;89645;-31
2022/12/11 12:58:05;;;;;;;46.97;29.92;;;0.90;99.90;;;;;;4957246;28;88304;-33
2022/12/11 13:00:37;;;;;;;47.03;28.30;;;0.90;99.90;;;;;;4956309;28;90340;-32
2022/12/11 13:03:29;;;;;;;42.83;26.75;;;0.90;99.90;;;;;;4956990;28;90261;-32
2022/12/11 13:06:09;;;;;;;49.33;28.85;;;0.90;99.90;;;;;;4957541;28;88118;-32